createdAt,value
2017-11-05T00:01:31.097Z,26.53
2017-11-05T00:04:00.261Z,26.17
2017-11-05T00:06:30.200Z,22.87
2017-11-05T00:08:59.878Z,26.53
2017-11-05T00:11:29.228Z,23.87
2017-11-05T00:13:58.602Z,19.33
2017-11-05T00:16:28.340Z,25.43
2017-11-05T00:18:57.697Z,23.83
2017-11-05T00:21:28.158Z,29.73
2017-11-05T00:23:57.317Z,22.23
2017-11-05T00:26:27.453Z,23.97
2017-11-05T00:28:57.195Z,28.67
2017-11-05T00:31:26.554Z,33.13
2017-11-05T00:33:55.910Z,25.10
2017-11-05T00:36:25.701Z,22.90
2017-11-05T00:38:55.058Z,30.57
2017-11-05T00:41:25.197Z,26.17
2017-11-05T00:43:54.351Z,21.93
2017-11-05T00:46:23.701Z,22.07
2017-11-05T00:48:53.425Z,27.13
2017-11-05T00:51:22.777Z,29.73
2017-11-05T00:53:53.238Z,24.07
2017-11-05T00:56:22.591Z,33.20
2017-11-05T00:58:52.715Z,27.37
2017-11-05T01:01:23.180Z,24.87
2017-11-05T01:03:52.548Z,33.57
2017-11-05T01:06:22.680Z,26.83
2017-11-05T01:08:52.405Z,26.30
2017-11-05T01:11:21.760Z,32.53
2017-11-05T01:13:52.249Z,31.03
2017-11-05T01:16:21.601Z,27.60
2017-11-05T01:18:51.740Z,30.93
2017-11-05T01:21:21.217Z,35.47
2017-11-05T01:23:51.150Z,33.30
2017-11-05T01:26:20.517Z,36.57
2017-11-05T01:28:50.486Z,33.17
2017-11-05T01:31:19.497Z,37.57
2017-11-05T01:33:48.854Z,35.63
2017-11-05T01:36:18.233Z,34.23
2017-11-05T01:38:48.149Z,29.50
2017-11-05T01:41:18.411Z,36.20
2017-11-05T01:43:48.413Z,34.00
2017-11-05T01:46:17.581Z,34.07
2017-11-05T01:48:48.369Z,28.60
2017-11-05T01:51:17.374Z,28.83
2017-11-05T01:53:47.178Z,32.53
2017-11-05T01:56:16.660Z,28.50
2017-11-05T01:58:45.814Z,30.90
2017-11-05T02:01:15.621Z,27.03
2017-11-05T02:03:46.089Z,28.23
2017-11-05T02:06:14.757Z,26.03
2017-11-05T02:08:43.228Z,29.50
2017-11-05T02:11:12.669Z,26.53
2017-11-05T02:13:41.685Z,30.17
2017-11-05T02:16:11.041Z,36.80
2017-11-05T02:18:40.860Z,25.97
2017-11-05T02:21:09.545Z,28.40
2017-11-05T02:23:38.360Z,24.13
2017-11-05T02:26:07.390Z,30.23
2017-11-05T02:28:36.195Z,29.90
2017-11-05T02:31:05.065Z,32.73
2017-11-05T02:33:34.806Z,29.70
2017-11-05T02:36:03.474Z,30.93
2017-11-05T02:38:32.543Z,26.57
2017-11-05T02:41:03.208Z,33.33
2017-11-05T02:43:32.572Z,29.00
2017-11-05T02:46:02.015Z,33.60
2017-11-05T02:48:31.051Z,28.43
2017-11-05T02:50:59.954Z,31.50
2017-11-05T02:53:29.176Z,32.87
2017-11-05T02:55:58.484Z,27.60
2017-11-05T02:58:27.851Z,28.97
2017-11-05T03:00:57.328Z,28.03
2017-11-05T03:03:26.802Z,28.43
2017-11-05T03:05:55.809Z,30.77
2017-11-05T03:08:24.296Z,26.20
2017-11-05T03:10:53.071Z,24.50
2017-11-05T03:13:21.728Z,27.97
2017-11-05T03:15:50.384Z,30.80
2017-11-05T03:18:20.124Z,24.83
2017-11-05T03:20:48.589Z,29.73
2017-11-05T03:23:17.065Z,24.47
2017-11-05T03:25:46.897Z,26.40
2017-11-05T03:28:15.560Z,21.47
2017-11-05T03:30:44.038Z,22.33
2017-11-05T03:33:13.060Z,20.43
2017-11-05T03:35:41.528Z,17.90
2017-11-05T03:38:10.191Z,24.87
2017-11-05T03:40:39.330Z,23.47
2017-11-05T03:43:07.794Z,21.00
2017-11-05T03:45:37.830Z,22.80
2017-11-05T03:48:06.605Z,24.80
2017-11-05T03:50:35.285Z,22.97
2017-11-05T03:53:04.292Z,25.00
2017-11-05T03:55:33.259Z,18.00
2017-11-05T03:58:01.941Z,19.80
2017-11-05T04:00:30.829Z,15.73
2017-11-05T04:03:00.217Z,12.63
2017-11-05T04:05:28.877Z,9.03
2017-11-05T04:07:58.300Z,7.47
2017-11-05T04:10:27.101Z,8.23
2017-11-05T04:12:55.746Z,7.80
2017-11-05T04:15:24.972Z,6.20
2017-11-05T04:17:54.092Z,4.73
2017-11-05T04:20:22.728Z,8.70
2017-11-05T04:22:51.956Z,6.23
2017-11-05T04:25:20.961Z,8.53
2017-11-05T04:27:49.612Z,7.07
2017-11-05T04:30:18.271Z,7.77
2017-11-05T04:32:47.744Z,9.63
2017-11-05T04:35:16.010Z,7.97
2017-11-05T04:37:45.459Z,8.33
2017-11-05T04:40:15.305Z,8.33
2017-11-05T04:42:43.757Z,9.37
2017-11-05T04:45:13.176Z,12.87
2017-11-05T04:47:42.174Z,10.83
2017-11-05T04:50:10.831Z,11.73
2017-11-05T04:52:40.853Z,13.83
2017-11-05T04:55:09.780Z,11.30
2017-11-05T04:57:38.053Z,14.67
2017-11-05T05:00:06.313Z,9.73
2017-11-05T05:02:35.301Z,13.27
2017-11-05T05:05:03.758Z,11.53
2017-11-05T05:07:33.520Z,12.93
2017-11-05T05:10:02.789Z,16.70
2017-11-05T05:12:31.817Z,14.83
2017-11-05T05:15:00.265Z,14.70
2017-11-05T05:17:30.526Z,14.20
2017-11-05T05:19:59.172Z,13.47
2017-11-05T05:22:27.826Z,13.10
2017-11-05T05:24:56.853Z,13.63
2017-11-05T05:27:25.502Z,10.93
2017-11-05T05:29:54.173Z,12.13
2017-11-05T05:32:24.945Z,13.07
2017-11-05T05:34:53.397Z,12.93
2017-11-05T05:37:22.398Z,10.20
2017-11-05T05:39:51.307Z,10.87
2017-11-05T05:42:19.757Z,12.17
2017-11-05T05:44:48.409Z,13.10
2017-11-05T05:47:17.485Z,12.50
2017-11-05T05:49:46.136Z,10.80
2017-11-05T05:52:14.784Z,10.90
2017-11-05T05:54:44.529Z,9.03
2017-11-05T05:57:13.520Z,10.73
2017-11-05T05:59:42.172Z,9.43
2017-11-05T06:02:11.769Z,7.70
2017-11-05T06:04:41.197Z,11.33
2017-11-05T06:07:09.845Z,6.90
2017-11-05T06:09:39.261Z,7.50
2017-11-05T06:12:08.480Z,6.13
2017-11-05T06:14:36.925Z,7.13
2017-11-05T06:17:06.472Z,7.17
2017-11-05T06:19:35.117Z,8.17
2017-11-05T06:22:04.529Z,6.90
2017-11-05T06:24:34.269Z,8.60
2017-11-05T06:27:02.920Z,6.87
2017-11-05T06:29:32.132Z,4.77
2017-11-05T06:32:01.257Z,4.60
2017-11-05T06:34:30.243Z,6.57
2017-11-05T06:36:58.893Z,5.43
2017-11-05T06:39:29.053Z,4.90
2017-11-05T06:41:57.501Z,5.07
2017-11-05T06:44:25.957Z,9.67
2017-11-05T06:46:55.565Z,6.10
2017-11-05T06:49:24.784Z,5.00
2017-11-05T06:51:53.241Z,8.90
2017-11-05T06:54:23.011Z,6.27
2017-11-05T06:56:51.677Z,7.03
2017-11-05T06:59:20.332Z,6.07
2017-11-05T07:01:49.168Z,8.00
2017-11-05T07:04:17.809Z,4.57
2017-11-05T07:06:46.480Z,8.20
2017-11-05T07:09:16.492Z,5.77
2017-11-05T07:11:45.706Z,5.47
2017-11-05T07:14:14.365Z,6.13
2017-11-05T07:16:44.119Z,8.93
2017-11-05T07:19:12.552Z,5.30
2017-11-05T07:21:41.988Z,6.00
2017-11-05T07:24:11.289Z,6.77
2017-11-05T07:26:40.080Z,7.27
2017-11-05T07:29:09.093Z,5.77
2017-11-05T07:31:38.178Z,7.00
2017-11-05T07:34:07.663Z,9.03
2017-11-05T07:36:36.636Z,6.60
2017-11-05T07:39:05.954Z,9.60
2017-11-05T07:41:35.009Z,7.03
2017-11-05T07:44:03.650Z,8.83
2017-11-05T07:46:32.416Z,8.73
2017-11-05T07:49:00.860Z,8.63
2017-11-05T07:51:30.082Z,12.27
2017-11-05T07:53:59.473Z,13.00
2017-11-05T07:56:28.129Z,11.90
2017-11-05T07:58:57.555Z,12.97
2017-11-05T08:01:26.665Z,10.33
2017-11-05T08:03:55.671Z,11.00
2017-11-05T08:06:24.784Z,10.37
2017-11-05T08:08:53.746Z,12.07
2017-11-05T08:11:23.095Z,12.17
2017-11-05T08:13:52.313Z,13.43
2017-11-05T08:16:22.153Z,15.87
2017-11-05T08:18:50.636Z,11.87
2017-11-05T08:21:19.368Z,17.00
2017-11-05T08:23:48.616Z,15.17
2017-11-05T08:26:17.609Z,14.70
2017-11-05T08:28:46.972Z,12.53
2017-11-05T08:31:17.133Z,22.20
2017-11-05T08:33:48.177Z,14.83
2017-11-05T08:36:17.858Z,17.20
2017-11-05T08:38:47.201Z,12.67
2017-11-05T08:41:15.887Z,15.07
2017-11-05T08:43:46.602Z,18.13
2017-11-05T08:46:15.961Z,12.03
2017-11-05T08:48:46.684Z,14.97
2017-11-05T08:51:16.807Z,15.30
2017-11-05T08:53:47.745Z,15.20
2017-11-05T08:56:16.745Z,16.30
2017-11-05T08:58:47.314Z,13.13
2017-11-05T09:01:15.977Z,12.77
2017-11-05T09:03:44.440Z,16.03
2017-11-05T09:06:14.168Z,12.00
2017-11-05T09:08:43.528Z,15.10
2017-11-05T09:11:13.304Z,16.47
2017-11-05T09:13:43.792Z,12.73
2017-11-05T09:16:12.784Z,16.43
2017-11-05T09:18:41.780Z,13.53
2017-11-05T09:21:11.170Z,12.97
2017-11-05T09:23:39.973Z,20.87
2017-11-05T09:26:08.636Z,14.73
2017-11-05T09:28:38.360Z,14.53
2017-11-05T09:31:07.713Z,13.27
2017-11-05T09:33:37.066Z,17.70
2017-11-05T09:36:07.468Z,10.60
2017-11-05T09:38:36.812Z,12.97
2017-11-05T09:41:06.175Z,11.70
2017-11-05T09:43:35.906Z,15.30
2017-11-05T09:46:05.256Z,13.50
2017-11-05T09:48:36.042Z,14.83
2017-11-05T09:51:05.393Z,11.57
2017-11-05T09:53:35.521Z,12.57
2017-11-05T09:56:04.991Z,14.97
2017-11-05T09:58:34.342Z,13.63
2017-11-05T10:01:03.337Z,9.50
2017-11-05T10:03:32.793Z,8.17
2017-11-05T10:06:02.141Z,12.07
2017-11-05T10:08:31.485Z,12.47
2017-11-05T10:11:01.452Z,10.40
2017-11-05T10:13:30.809Z,13.07
2017-11-05T10:16:00.957Z,15.23
2017-11-05T10:18:30.314Z,13.70
2017-11-05T10:20:59.659Z,14.47
2017-11-05T10:23:29.413Z,9.97
2017-11-05T10:25:58.882Z,14.50
2017-11-05T10:28:29.304Z,11.67
2017-11-05T10:30:58.674Z,13.43
2017-11-05T10:33:29.100Z,10.93
2017-11-05T10:35:59.212Z,11.37
2017-11-05T10:38:29.677Z,12.83
2017-11-05T10:40:59.038Z,13.47
2017-11-05T10:43:29.517Z,10.00
2017-11-05T10:45:59.905Z,12.27
2017-11-05T10:48:29.832Z,9.93
2017-11-05T10:50:59.180Z,6.77
2017-11-05T10:53:28.525Z,8.07
2017-11-05T10:55:58.260Z,9.30
2017-11-05T10:58:27.429Z,10.80
2017-11-05T11:00:56.788Z,10.23
2017-11-05T11:03:26.574Z,6.23
2017-11-05T11:05:55.935Z,14.53
2017-11-05T11:08:25.084Z,10.80
2017-11-05T11:10:54.869Z,11.13
2017-11-05T11:13:24.217Z,11.20
2017-11-05T11:15:54.349Z,6.47
2017-11-05T11:18:24.473Z,11.07
2017-11-05T11:20:54.968Z,9.03
2017-11-05T11:23:24.421Z,8.07
2017-11-05T11:25:53.774Z,11.77
2017-11-05T11:28:23.708Z,8.07
2017-11-05T11:30:53.314Z,15.10
2017-11-05T11:33:23.448Z,9.67
2017-11-05T11:35:52.809Z,11.77
2017-11-05T11:38:22.161Z,8.83
2017-11-05T11:40:51.870Z,12.93
2017-11-05T11:43:21.232Z,11.60
2017-11-05T11:45:51.467Z,14.00
2017-11-05T11:48:20.857Z,10.30
2017-11-05T11:50:50.972Z,11.90
2017-11-05T11:53:21.744Z,9.97
2017-11-05T11:55:51.089Z,10.30
2017-11-05T11:58:20.452Z,11.10
2017-11-05T12:00:49.944Z,12.80
2017-11-05T12:03:18.948Z,13.47
2017-11-05T12:05:48.437Z,12.00
2017-11-05T12:08:17.896Z,7.77
2017-11-05T12:10:47.849Z,9.53
2017-11-05T12:13:17.299Z,9.80
2017-11-05T12:15:47.213Z,10.07
2017-11-05T12:18:16.547Z,11.00
2017-11-05T12:20:45.922Z,6.27
2017-11-05T12:23:15.884Z,6.57
2017-11-05T12:25:45.234Z,3.30
2017-11-05T12:28:15.653Z,3.60
2017-11-05T12:30:45.013Z,5.63
2017-11-05T12:33:14.005Z,3.03
2017-11-05T12:35:43.717Z,3.23
2017-11-05T12:38:13.057Z,4.47
2017-11-05T12:40:42.053Z,4.00
2017-11-05T12:43:12.282Z,4.30
2017-11-05T12:45:42.387Z,2.80
2017-11-05T12:48:11.740Z,4.63
2017-11-05T12:50:41.565Z,6.33
2017-11-05T12:53:11.671Z,5.03
2017-11-05T12:55:41.293Z,3.50
2017-11-05T12:58:11.397Z,5.60
2017-11-05T13:00:40.754Z,3.70
2017-11-05T13:03:11.606Z,4.53
2017-11-05T13:05:41.010Z,5.03
2017-11-05T13:08:11.862Z,5.63
2017-11-05T13:10:41.209Z,6.87
2017-11-05T13:13:11.154Z,8.87
2017-11-05T13:15:40.511Z,4.20
2017-11-05T13:18:10.120Z,5.63
2017-11-05T13:20:39.860Z,6.97
2017-11-05T13:23:09.969Z,4.57
2017-11-05T13:25:40.362Z,7.20
2017-11-05T13:28:09.703Z,6.63
2017-11-05T13:30:38.853Z,11.23
2017-11-05T13:33:08.533Z,6.63
2017-11-05T13:35:37.880Z,11.00
2017-11-05T13:38:08.349Z,10.17
2017-11-05T13:40:37.695Z,7.17
2017-11-05T13:43:07.053Z,9.63
2017-11-05T13:45:36.453Z,11.40
2017-11-05T13:48:05.796Z,12.93
2017-11-05T13:50:36.185Z,13.97
2017-11-05T13:53:05.539Z,9.70
2017-11-05T13:55:34.879Z,7.40
2017-11-05T13:58:04.580Z,10.80
2017-11-05T14:00:33.232Z,5.13
2017-11-05T14:03:03.362Z,7.10
2017-11-05T14:05:32.889Z,6.63
2017-11-05T14:08:02.236Z,7.47
2017-11-05T14:10:31.583Z,6.87
2017-11-05T14:13:01.008Z,5.73
2017-11-05T14:15:29.994Z,8.40
2017-11-05T14:17:59.341Z,7.47
2017-11-05T14:20:29.601Z,8.87
2017-11-05T14:22:58.753Z,6.47
2017-11-05T14:25:28.092Z,5.03
2017-11-05T14:27:57.813Z,5.80
2017-11-05T14:30:27.405Z,5.83
2017-11-05T14:32:56.748Z,6.80
2017-11-05T14:35:27.540Z,5.23
2017-11-05T14:37:56.712Z,6.93
2017-11-05T14:40:26.062Z,4.70
2017-11-05T14:42:55.773Z,7.17
2017-11-05T14:45:24.764Z,5.17
2017-11-05T14:47:54.726Z,3.63
2017-11-05T14:50:24.496Z,4.77
2017-11-05T14:52:53.491Z,5.13
2017-11-05T14:55:22.489Z,5.87
2017-11-05T14:57:51.950Z,5.87
2017-11-05T15:00:20.945Z,5.60
2017-11-05T15:02:49.784Z,4.37
2017-11-05T15:05:19.805Z,7.17
2017-11-05T15:07:49.919Z,5.70
2017-11-05T15:10:19.789Z,5.63
2017-11-05T15:12:49.127Z,4.77
2017-11-05T15:15:18.124Z,4.80
2017-11-05T15:17:48.210Z,4.43
2017-11-05T15:20:17.558Z,6.93
2017-11-05T15:22:46.837Z,4.93
2017-11-05T15:25:17.618Z,5.57
2017-11-05T15:27:46.958Z,8.37
2017-11-05T15:30:15.958Z,4.03
2017-11-05T15:32:46.429Z,5.47
2017-11-05T15:35:15.772Z,3.63
2017-11-05T15:37:44.417Z,3.80
2017-11-05T15:40:13.608Z,3.00
2017-11-05T15:42:42.772Z,6.93
2017-11-05T15:45:12.360Z,6.53
2017-11-05T15:47:42.041Z,4.03
2017-11-05T15:50:11.392Z,3.10
2017-11-05T15:52:40.617Z,3.97
2017-11-05T15:55:10.529Z,4.93
2017-11-05T15:57:39.689Z,6.03
2017-11-05T16:00:10.141Z,7.77
2017-11-05T16:02:39.288Z,8.63
2017-11-05T16:05:08.632Z,6.07
2017-11-05T16:07:38.349Z,7.80
2017-11-05T16:10:07.693Z,3.60
2017-11-05T16:12:37.041Z,3.90
2017-11-05T16:15:07.233Z,3.13
2017-11-05T16:17:37.413Z,4.70
2017-11-05T16:20:06.771Z,3.90
2017-11-05T16:22:36.452Z,5.27
2017-11-05T16:25:06.046Z,3.37
2017-11-05T16:27:35.045Z,5.67
2017-11-05T16:30:05.635Z,4.83
2017-11-05T16:32:34.977Z,4.17
2017-11-05T16:35:05.831Z,6.63
2017-11-05T16:37:36.068Z,3.57
2017-11-05T16:40:05.114Z,4.90
2017-11-05T16:42:34.453Z,7.43
2017-11-05T16:45:04.175Z,4.77
2017-11-05T16:47:33.510Z,5.40
2017-11-05T16:50:02.857Z,3.67
2017-11-05T16:52:32.597Z,3.40
2017-11-05T16:55:01.937Z,3.20
2017-11-05T16:57:32.813Z,7.20
2017-11-05T17:00:02.929Z,9.50
2017-11-05T17:02:32.582Z,7.23
2017-11-05T17:05:01.577Z,5.43
2017-11-05T17:07:30.239Z,5.43
2017-11-05T17:09:59.718Z,7.30
2017-11-05T17:12:29.055Z,5.47
2017-11-05T17:14:58.045Z,4.63
2017-11-05T17:17:27.407Z,8.63
2017-11-05T17:19:56.746Z,6.47
2017-11-05T17:22:26.087Z,7.03
2017-11-05T17:24:56.957Z,7.90
2017-11-05T17:27:26.297Z,5.70
2017-11-05T17:29:55.716Z,12.30
2017-11-05T17:32:25.108Z,6.60
2017-11-05T17:34:56.038Z,6.13
2017-11-05T17:37:26.900Z,7.40
2017-11-05T17:39:56.993Z,6.10
2017-11-05T17:42:27.453Z,8.67
2017-11-05T17:44:56.795Z,6.47
2017-11-05T17:47:26.137Z,6.57
2017-11-05T17:49:55.997Z,8.53
2017-11-05T17:52:25.812Z,8.80
2017-11-05T17:54:54.993Z,8.67
2017-11-05T17:57:24.345Z,5.53
2017-11-05T17:59:56.890Z,5.80
2017-11-05T18:02:26.220Z,6.63
2017-11-05T18:04:56.346Z,10.00
2017-11-05T18:07:25.937Z,7.90
2017-11-05T18:09:58.725Z,10.23
2017-11-05T18:12:28.870Z,8.20
2017-11-05T18:14:59.293Z,7.33
2017-11-05T18:17:28.655Z,11.50
2017-11-05T18:19:59.009Z,8.40
2017-11-05T18:22:28.364Z,13.03
2017-11-05T18:24:57.722Z,7.10
2017-11-05T18:27:27.681Z,6.73
2017-11-05T18:29:57.023Z,8.30
2017-11-05T18:32:26.405Z,8.10
2017-11-05T18:34:57.289Z,9.83
2017-11-05T18:37:26.676Z,9.93
2017-11-05T18:39:56.029Z,7.53
2017-11-05T18:42:26.446Z,7.53
2017-11-05T18:44:56.642Z,10.97
2017-11-05T18:47:26.112Z,9.67
2017-11-05T18:49:56.380Z,9.27
2017-11-05T18:52:25.823Z,7.10
2017-11-05T18:54:55.237Z,10.67
2017-11-05T18:57:24.916Z,10.13
2017-11-05T18:59:55.159Z,8.90
2017-11-05T19:02:25.418Z,9.53
2017-11-05T19:04:54.770Z,7.90
2017-11-05T19:07:25.105Z,11.43
2017-11-05T19:09:54.478Z,12.27
2017-11-05T19:12:24.596Z,11.53
2017-11-05T19:14:54.733Z,13.97
2017-11-05T19:17:24.173Z,11.53
2017-11-05T19:19:53.520Z,15.33
2017-11-05T19:22:23.059Z,13.07
2017-11-05T19:24:52.413Z,16.10
2017-11-05T19:27:22.536Z,13.40
2017-11-05T19:29:53.574Z,13.40
2017-11-05T19:32:23.708Z,22.57
2017-11-05T19:34:53.070Z,12.13
2017-11-05T19:37:22.420Z,15.90
2017-11-05T19:39:53.052Z,17.80
2017-11-05T19:42:23.404Z,12.73
2017-11-05T19:44:52.769Z,14.07
2017-11-05T19:47:21.425Z,21.67
2017-11-05T19:49:52.270Z,14.40
2017-11-05T19:52:22.629Z,18.80
2017-11-05T19:54:51.976Z,21.70
2017-11-05T19:57:22.308Z,23.50
2017-11-05T19:59:52.434Z,25.53
2017-11-05T20:02:21.803Z,22.27
2017-11-05T20:04:51.157Z,23.00
2017-11-05T20:07:20.509Z,25.70
2017-11-05T20:09:49.875Z,20.57
2017-11-05T20:12:19.225Z,20.40
2017-11-05T20:14:49.361Z,25.67
2017-11-05T20:17:18.722Z,20.43
2017-11-05T20:19:48.070Z,24.03
2017-11-05T20:22:17.689Z,24.20
2017-11-05T20:24:47.033Z,24.70
2017-11-05T20:27:16.389Z,23.83
2017-11-05T20:29:46.091Z,26.43
2017-11-05T20:32:15.436Z,25.67
2017-11-05T20:34:44.780Z,22.97
2017-11-05T20:37:14.294Z,23.40
2017-11-05T20:39:43.650Z,23.90
2017-11-05T20:42:12.994Z,24.57
2017-11-05T20:44:42.659Z,26.67
2017-11-05T20:47:12.248Z,29.63
2017-11-05T20:49:41.605Z,25.87
2017-11-05T20:52:11.117Z,31.03
2017-11-05T20:54:40.460Z,26.63
2017-11-05T20:57:09.827Z,24.60
2017-11-05T20:59:39.467Z,28.00
2017-11-05T21:02:08.600Z,26.30
2017-11-05T21:04:37.941Z,32.13
2017-11-05T21:07:07.613Z,28.33
2017-11-05T21:09:36.954Z,28.93
2017-11-05T21:12:06.310Z,32.30
2017-11-05T21:14:36.032Z,30.53
2017-11-05T21:17:05.400Z,31.43
2017-11-05T21:19:34.763Z,32.83
2017-11-05T21:22:04.326Z,34.30
2017-11-05T21:24:33.716Z,31.60
2017-11-05T21:27:03.310Z,28.50
2017-11-05T21:29:33.557Z,35.07
2017-11-05T21:32:02.913Z,29.20
2017-11-05T21:34:32.868Z,37.73
2017-11-05T21:37:02.481Z,26.00
2017-11-05T21:39:31.637Z,31.77
2017-11-05T21:42:01.856Z,33.80
2017-11-05T21:44:31.973Z,29.87
2017-11-05T21:47:02.105Z,31.07
2017-11-05T21:49:31.468Z,30.13
2017-11-05T21:52:00.817Z,28.47
2017-11-05T21:54:30.531Z,29.77
2017-11-05T21:56:59.891Z,34.37
2017-11-05T21:59:29.831Z,30.00
2017-11-05T22:01:59.064Z,32.10
2017-11-05T22:04:28.995Z,32.17
2017-11-05T22:06:58.529Z,33.57
2017-11-05T22:09:27.911Z,30.17
2017-11-05T22:11:57.260Z,30.57
2017-11-05T22:14:26.765Z,28.50
2017-11-05T22:16:57.075Z,28.73
2017-11-05T22:19:26.441Z,27.53
2017-11-05T22:21:55.956Z,25.63
2017-11-05T22:24:26.097Z,30.93
2017-11-05T22:26:55.446Z,23.43
2017-11-05T22:29:24.793Z,27.17
2017-11-05T22:31:54.575Z,23.80
2017-11-05T22:34:24.511Z,26.60
2017-11-05T22:36:53.908Z,26.87
2017-11-05T22:39:23.930Z,25.67
2017-11-05T22:41:53.843Z,26.03
2017-11-05T22:44:23.200Z,31.23
2017-11-05T22:46:52.644Z,25.40
2017-11-05T22:49:22.893Z,29.43
2017-11-05T22:51:52.331Z,33.50
2017-11-05T22:54:21.731Z,29.77
2017-11-05T22:56:51.609Z,32.53
2017-11-05T22:59:20.965Z,33.30
2017-11-05T23:01:51.427Z,41.03
2017-11-05T23:04:20.574Z,24.73
2017-11-05T23:06:49.913Z,40.43
2017-11-05T23:09:19.628Z,36.27
2017-11-05T23:11:48.976Z,33.17
2017-11-05T23:14:18.322Z,30.90
2017-11-05T23:16:48.233Z,31.10
2017-11-05T23:19:17.593Z,31.60
2017-11-05T23:21:46.984Z,34.90
2017-11-05T23:24:16.953Z,35.33
2017-11-05T23:26:46.305Z,37.47
2017-11-05T23:29:16.436Z,37.00
2017-11-05T23:31:46.823Z,33.43
2017-11-05T23:34:16.170Z,37.67
2017-11-05T23:36:46.296Z,41.47
2017-11-05T23:39:16.020Z,44.47
2017-11-05T23:41:45.369Z,48.90
2017-11-05T23:44:14.716Z,34.43
2017-11-05T23:46:44.775Z,30.27
2017-11-05T23:49:14.112Z,29.90
2017-11-05T23:51:43.474Z,30.67
2017-11-05T23:54:13.144Z,23.97
2017-11-05T23:56:42.501Z,28.77
2017-11-05T23:59:12.629Z,32.00
